createdAt,value
2019-02-20T00:02:15.384Z,7.05
2019-02-20T00:04:46.829Z,6.85
2019-02-20T00:07:18.254Z,6.80
2019-02-20T00:09:49.687Z,6.93
2019-02-20T00:12:21.111Z,6.93
2019-02-20T00:14:54.846Z,6.80
2019-02-20T00:17:26.298Z,6.83
2019-02-20T00:19:57.699Z,6.80
2019-02-20T00:22:29.127Z,6.84
2019-02-20T00:25:00.622Z,6.85
2019-02-20T00:27:33.181Z,6.72
2019-02-20T00:30:04.907Z,6.76
2019-02-20T00:32:36.330Z,6.77
2019-02-20T00:35:07.721Z,6.76
2019-02-20T00:37:39.161Z,6.81
2019-02-20T00:40:10.584Z,6.78
2019-02-20T00:42:41.988Z,6.81
2019-02-20T00:45:21.759Z,6.68
2019-02-20T00:48:04.411Z,6.76
2019-02-20T00:50:37.589Z,6.78
2019-02-20T00:53:16.441Z,6.67
2019-02-20T00:55:47.991Z,6.72
2019-02-20T00:58:19.338Z,6.67
2019-02-20T01:00:50.766Z,6.66
2019-02-20T01:03:22.317Z,6.78
2019-02-20T01:05:53.776Z,6.67
2019-02-20T01:08:25.134Z,6.38
2019-02-20T01:10:56.566Z,6.51
2019-02-20T01:13:27.941Z,6.55
2019-02-20T01:15:59.471Z,6.64
2019-02-20T01:18:30.902Z,6.60
2019-02-20T01:21:04.066Z,6.50
2019-02-20T01:23:35.563Z,6.56
2019-02-20T01:26:09.763Z,6.56
2019-02-20T01:28:41.214Z,6.57
2019-02-20T01:31:12.658Z,6.48
2019-02-20T01:33:44.091Z,6.35
2019-02-20T01:36:15.502Z,6.36
2019-02-20T01:38:46.795Z,6.28
2019-02-20T01:41:18.152Z,6.48
2019-02-20T01:43:49.590Z,6.42
2019-02-20T01:46:20.993Z,6.36
2019-02-20T01:48:53.432Z,6.42
2019-02-20T01:51:24.793Z,6.34
2019-02-20T01:53:56.248Z,6.26
2019-02-20T01:56:27.679Z,6.33
2019-02-20T01:58:59.189Z,5.79
2019-02-20T02:01:30.642Z,5.84
2019-02-20T02:04:02.260Z,6.18
2019-02-20T02:06:33.772Z,6.30
2019-02-20T02:09:07.004Z,6.11
2019-02-20T02:11:39.423Z,6.06
2019-02-20T02:14:10.894Z,6.20
2019-02-20T02:16:42.322Z,6.23
2019-02-20T02:19:16.112Z,6.31
2019-02-20T02:21:47.466Z,6.15
2019-02-20T02:24:18.836Z,6.28
2019-02-20T02:26:50.632Z,6.23
2019-02-20T02:29:22.090Z,6.29
2019-02-20T02:31:53.535Z,6.26
2019-02-20T02:34:25.008Z,5.88
2019-02-20T02:36:56.294Z,5.82
2019-02-20T02:39:27.757Z,5.88
2019-02-20T02:42:00.602Z,6.21
2019-02-20T02:44:34.018Z,6.28
2019-02-20T02:47:05.404Z,6.18
2019-02-20T02:49:36.886Z,6.12
2019-02-20T02:52:08.215Z,5.97
2019-02-20T02:54:39.706Z,6.13
2019-02-20T02:57:11.173Z,6.02
2019-02-20T02:59:42.562Z,6.13
2019-02-20T03:02:13.979Z,6.02
2019-02-20T03:04:45.657Z,5.98
2019-02-20T03:07:17.102Z,5.93
2019-02-20T03:09:50.853Z,5.96
2019-02-20T03:12:22.447Z,6.08
2019-02-20T03:14:54.280Z,6.04
2019-02-20T03:17:25.640Z,6.04
2019-02-20T03:19:57.046Z,6.04
2019-02-20T03:22:28.397Z,5.98
2019-02-20T03:24:59.766Z,5.71
2019-02-20T03:27:31.208Z,5.76
2019-02-20T03:30:02.584Z,5.86
2019-02-20T03:32:35.226Z,5.63
2019-02-20T03:35:07.162Z,5.66
2019-02-20T03:37:38.578Z,5.88
2019-02-20T03:40:10.289Z,5.97
2019-02-20T03:42:41.712Z,6.01
2019-02-20T03:45:14.672Z,5.95
2019-02-20T03:47:46.307Z,5.97
2019-02-20T03:50:17.719Z,6.02
2019-02-20T03:52:49.125Z,6.10
2019-02-20T03:55:23.577Z,5.98
2019-02-20T03:57:55.023Z,6.14
2019-02-20T04:00:26.407Z,6.00
2019-02-20T04:02:57.789Z,5.82
2019-02-20T04:05:29.332Z,5.90
2019-02-20T04:08:02.262Z,5.88
2019-02-20T04:10:33.739Z,5.94
2019-02-20T04:13:05.427Z,5.99
2019-02-20T04:15:36.891Z,6.01
2019-02-20T04:18:08.330Z,5.91
2019-02-20T04:20:41.553Z,5.94
2019-02-20T04:23:14.057Z,6.05
2019-02-20T04:25:45.510Z,5.75
2019-02-20T04:28:16.988Z,5.63
2019-02-20T04:30:48.454Z,5.59
2019-02-20T04:33:19.864Z,5.78
2019-02-20T04:35:52.321Z,5.73
2019-02-20T04:38:23.732Z,5.79
2019-02-20T04:40:55.079Z,5.94
2019-02-20T04:43:26.440Z,5.81
2019-02-20T04:45:57.910Z,5.97
2019-02-20T04:48:29.287Z,5.69
2019-02-20T04:51:00.744Z,5.65
2019-02-20T04:53:32.077Z,5.42
2019-02-20T04:56:03.533Z,5.26
2019-02-20T04:58:34.973Z,5.47
2019-02-20T05:01:06.492Z,5.63
2019-02-20T05:03:37.945Z,5.62
2019-02-20T05:06:09.389Z,5.74
2019-02-20T05:08:40.877Z,5.71
2019-02-20T05:11:12.258Z,5.58
2019-02-20T05:13:43.687Z,5.35
2019-02-20T05:16:15.149Z,5.67
2019-02-20T05:18:46.574Z,5.64
2019-02-20T05:21:19.091Z,5.58
2019-02-20T05:23:50.446Z,5.64
2019-02-20T05:26:21.898Z,5.58
2019-02-20T05:28:53.376Z,5.56
2019-02-20T05:31:26.823Z,5.68
2019-02-20T05:33:58.357Z,5.45
2019-02-20T05:36:29.844Z,5.48
2019-02-20T05:39:01.187Z,5.49
2019-02-20T05:41:34.296Z,5.28
2019-02-20T05:44:05.767Z,5.08
2019-02-20T05:46:37.243Z,5.13
2019-02-20T05:49:08.687Z,5.32
2019-02-20T05:51:40.139Z,5.62
2019-02-20T05:54:11.568Z,5.57
2019-02-20T05:56:43.008Z,5.44
2019-02-20T05:59:15.553Z,5.63
2019-02-20T06:01:48.514Z,5.41
2019-02-20T06:04:19.894Z,5.28
2019-02-20T06:06:51.401Z,5.48
2019-02-20T06:09:24.736Z,5.67
2019-02-20T06:11:56.037Z,5.60
2019-02-20T06:14:27.488Z,5.71
2019-02-20T06:16:58.972Z,5.59
2019-02-20T06:19:30.419Z,5.68
2019-02-20T06:22:01.872Z,5.64
2019-02-20T06:24:33.308Z,5.69
2019-02-20T06:27:04.745Z,5.60
2019-02-20T06:29:36.099Z,5.68
2019-02-20T06:32:07.591Z,5.72
2019-02-20T06:34:39.094Z,5.78
2019-02-20T06:37:10.478Z,5.74
2019-02-20T06:39:41.889Z,5.73
2019-02-20T06:42:15.181Z,5.81
2019-02-20T06:44:46.599Z,5.65
2019-02-20T06:47:18.227Z,5.84
2019-02-20T06:49:49.654Z,5.62
2019-02-20T06:52:21.143Z,5.82
2019-02-20T06:54:54.142Z,5.68
2019-02-20T06:57:25.849Z,5.68
2019-02-20T06:59:57.296Z,5.49
2019-02-20T07:02:29.923Z,5.57
2019-02-20T07:05:37.508Z,5.39
2019-02-20T07:09:04.799Z,5.32
2019-02-20T07:12:19.553Z,5.42
2019-02-20T07:16:21.912Z,5.52
2019-02-20T07:19:33.451Z,5.36
2019-02-20T07:23:05.252Z,5.75
2019-02-20T07:26:20.520Z,5.80
2019-02-20T07:29:49.649Z,5.95
2019-02-20T07:32:21.107Z,6.18
2019-02-20T07:34:52.555Z,6.35
2019-02-20T07:37:23.979Z,6.15
2019-02-20T07:39:57.210Z,6.31
2019-02-20T07:42:28.488Z,6.37
2019-02-20T07:44:59.950Z,6.49
2019-02-20T07:47:31.370Z,6.63
2019-02-20T07:50:02.857Z,6.63
2019-02-20T07:52:35.413Z,6.52
2019-02-20T07:55:13.353Z,6.53
2019-02-20T07:57:40.261Z,6.43
2019-02-20T08:00:13.560Z,6.59
2019-02-20T08:02:45.006Z,6.57
2019-02-20T08:05:16.449Z,6.69
2019-02-20T08:07:48.086Z,6.82
2019-02-20T08:10:19.459Z,6.92
2019-02-20T08:12:50.813Z,7.20
2019-02-20T08:15:22.320Z,7.32
2019-02-20T08:17:53.928Z,7.49
2019-02-20T08:20:25.386Z,7.38
2019-02-20T08:22:56.840Z,7.36
2019-02-20T08:25:29.400Z,7.78
2019-02-20T08:28:00.832Z,7.94
2019-02-20T08:30:39.016Z,8.21
2019-02-20T08:33:18.849Z,8.10
2019-02-20T08:35:52.629Z,7.57
2019-02-20T08:38:26.372Z,7.23
2019-02-20T08:40:59.628Z,7.15
2019-02-20T08:43:45.145Z,7.48
2019-02-20T08:46:20.554Z,7.95
2019-02-20T08:49:04.382Z,8.08
2019-02-20T08:51:37.114Z,8.10
2019-02-20T08:54:11.228Z,8.16
2019-02-20T08:56:46.674Z,7.75
2019-02-20T08:59:20.908Z,7.92
2019-02-20T09:01:57.930Z,8.05
2019-02-20T09:04:29.494Z,8.31
2019-02-20T09:07:06.348Z,8.44
2019-02-20T09:09:44.425Z,9.24
2019-02-20T09:12:24.988Z,8.98
2019-02-20T09:14:56.531Z,8.74
2019-02-20T09:17:27.996Z,8.36
2019-02-20T09:19:59.480Z,8.44
2019-02-20T09:22:30.986Z,8.71
2019-02-20T09:25:02.418Z,8.45
2019-02-20T09:27:34.038Z,8.43
2019-02-20T09:30:08.201Z,8.44
2019-02-20T09:32:39.711Z,8.48
2019-02-20T09:35:11.350Z,8.29
2019-02-20T09:37:42.793Z,8.28
2019-02-20T09:40:15.938Z,8.43
2019-02-20T09:42:48.356Z,8.54
2019-02-20T09:45:19.767Z,8.61
2019-02-20T09:47:51.133Z,8.50
2019-02-20T09:50:22.599Z,8.40
2019-02-20T09:52:54.096Z,8.40
2019-02-20T09:55:25.506Z,7.93
2019-02-20T09:57:56.963Z,8.52
2019-02-20T10:00:28.383Z,8.81
2019-02-20T10:02:59.854Z,8.74
2019-02-20T10:05:31.197Z,8.95
2019-02-20T10:08:04.442Z,9.29
2019-02-20T10:10:35.724Z,9.51
2019-02-20T10:13:09.496Z,9.58
2019-02-20T10:15:40.426Z,9.58
2019-02-20T10:18:12.312Z,9.24
2019-02-20T10:20:43.780Z,9.01
2019-02-20T10:23:15.274Z,9.37
2019-02-20T10:25:47.897Z,10.06
2019-02-20T10:28:19.418Z,10.10
2019-02-20T10:30:51.300Z,9.82
2019-02-20T10:33:22.779Z,9.64
2019-02-20T10:35:54.238Z,10.14
2019-02-20T10:38:25.658Z,10.64
2019-02-20T10:40:57.098Z,10.55
2019-02-20T10:43:28.923Z,10.77
2019-02-20T10:46:00.410Z,10.96
2019-02-20T10:48:33.578Z,10.92
2019-02-20T10:51:05.067Z,10.88
2019-02-20T10:53:36.527Z,10.82
2019-02-20T10:56:09.724Z,10.74
2019-02-20T10:58:46.418Z,10.88
2019-02-20T11:01:25.721Z,10.86
2019-02-20T11:04:10.928Z,10.96
2019-02-20T11:06:50.287Z,10.59
2019-02-20T11:09:22.618Z,11.05
2019-02-20T11:12:02.481Z,11.41
2019-02-20T11:14:35.494Z,11.26
2019-02-20T11:17:11.148Z,11.07
2019-02-20T11:19:44.281Z,11.01
2019-02-20T11:22:20.596Z,10.60
2019-02-20T11:24:56.044Z,10.90
2019-02-20T11:27:32.746Z,10.80
2019-02-20T11:30:08.265Z,10.57
2019-02-20T11:32:41.353Z,10.42
2019-02-20T11:35:15.874Z,10.49
2019-02-20T11:37:51.177Z,10.63
2019-02-20T11:40:23.517Z,10.70
2019-02-20T11:42:58.256Z,10.64
2019-02-20T11:45:30.537Z,10.57
2019-02-20T11:48:12.304Z,10.62
2019-02-20T11:50:46.950Z,10.70
2019-02-20T11:53:22.065Z,10.63
2019-02-20T11:55:53.446Z,10.75
2019-02-20T11:58:29.559Z,10.77
2019-02-20T12:01:06.940Z,10.33
2019-02-20T12:03:44.266Z,10.23
2019-02-20T12:06:18.723Z,10.20
2019-02-20T12:09:01.049Z,10.11
2019-02-20T12:11:36.613Z,10.30
2019-02-20T12:14:10.923Z,10.17
2019-02-20T12:16:42.442Z,10.28
2019-02-20T12:19:15.515Z,10.58
2019-02-20T12:21:46.985Z,10.64
2019-02-20T12:24:18.484Z,10.43
2019-02-20T12:26:49.869Z,10.49
2019-02-20T12:29:21.368Z,10.62
2019-02-20T12:31:52.874Z,10.79
2019-02-20T12:34:24.420Z,10.51
2019-02-20T12:36:55.951Z,10.19
2019-02-20T12:39:27.864Z,10.15
2019-02-20T12:41:59.316Z,10.30
2019-02-20T12:44:30.869Z,10.50
2019-02-20T12:47:02.421Z,10.60
2019-02-20T12:49:33.884Z,10.74
2019-02-20T12:52:05.433Z,10.61
2019-02-20T12:54:36.903Z,10.72
2019-02-20T12:57:10.282Z,10.73
2019-02-20T12:59:41.496Z,10.82
2019-02-20T13:02:12.987Z,11.06
2019-02-20T13:04:44.678Z,10.68
2019-02-20T13:07:19.425Z,10.55
2019-02-20T13:09:50.886Z,10.74
2019-02-20T13:12:22.506Z,10.63
2019-02-20T13:14:54.057Z,10.70
2019-02-20T13:17:25.562Z,10.70
2019-02-20T13:19:57.054Z,10.73
2019-02-20T13:22:28.519Z,10.60
2019-02-20T13:25:00.040Z,10.77
2019-02-20T13:27:31.410Z,10.60
2019-02-20T13:30:02.919Z,10.71
2019-02-20T13:32:38.647Z,10.85
2019-02-20T13:35:12.544Z,10.59
2019-02-20T13:37:56.368Z,10.60
2019-02-20T13:40:35.395Z,10.85
2019-02-20T13:43:11.584Z,10.72
2019-02-20T13:45:48.684Z,10.88
2019-02-20T13:48:30.285Z,10.82
2019-02-20T13:51:02.842Z,10.60
2019-02-20T13:53:46.357Z,10.67
2019-02-20T13:56:19.334Z,10.72
2019-02-20T13:58:54.402Z,10.83
2019-02-20T14:01:39.045Z,10.67
2019-02-20T14:04:13.345Z,10.82
2019-02-20T14:06:46.682Z,10.76
2019-02-20T14:09:35.839Z,10.65
2019-02-20T14:12:16.325Z,10.92
2019-02-20T14:14:51.110Z,11.06
2019-02-20T14:17:27.022Z,11.02
2019-02-20T14:20:06.590Z,11.13
2019-02-20T14:22:43.169Z,11.20
2019-02-20T14:25:21.810Z,11.20
2019-02-20T14:28:08.787Z,11.21
2019-02-20T14:30:42.715Z,11.25
2019-02-20T14:33:19.017Z,11.34
2019-02-20T14:36:04.487Z,11.22
2019-02-20T14:38:35.955Z,11.36
2019-02-20T14:41:10.653Z,11.37
2019-02-20T14:43:42.172Z,11.14
2019-02-20T14:46:13.699Z,11.07
2019-02-20T14:48:45.165Z,11.10
2019-02-20T14:51:16.650Z,11.14
2019-02-20T14:53:48.614Z,11.11
2019-02-20T14:56:20.143Z,11.22
2019-02-20T14:58:51.661Z,11.18
2019-02-20T15:01:23.156Z,11.10
2019-02-20T15:03:54.677Z,11.02
2019-02-20T15:06:26.144Z,11.06
2019-02-20T15:08:57.630Z,11.22
2019-02-20T15:11:29.192Z,11.20
2019-02-20T15:14:00.664Z,11.18
2019-02-20T15:16:32.125Z,11.31
2019-02-20T15:19:03.567Z,11.10
2019-02-20T15:21:35.066Z,11.22
2019-02-20T15:24:06.797Z,11.24
2019-02-20T15:26:40.581Z,11.12
2019-02-20T15:29:12.028Z,11.09
2019-02-20T15:31:43.672Z,11.07
2019-02-20T15:34:15.150Z,11.30
2019-02-20T15:36:48.650Z,11.11
2019-02-20T15:39:22.560Z,11.17
2019-02-20T15:41:55.642Z,11.07
2019-02-20T15:44:27.108Z,11.14
2019-02-20T15:46:58.603Z,11.12
2019-02-20T15:49:30.106Z,11.17
2019-02-20T15:52:01.946Z,11.00
2019-02-20T15:54:33.398Z,11.15
2019-02-20T15:57:06.666Z,10.96
2019-02-20T15:59:38.886Z,10.97
2019-02-20T16:02:11.431Z,10.93
2019-02-20T16:04:42.805Z,10.90
2019-02-20T16:07:14.223Z,10.97
2019-02-20T16:09:45.695Z,10.71
2019-02-20T16:12:19.258Z,10.67
2019-02-20T16:14:52.516Z,10.71
2019-02-20T16:17:23.799Z,10.77
2019-02-20T16:19:55.246Z,10.71
2019-02-20T16:22:26.726Z,10.68
2019-02-20T16:24:58.387Z,10.81
2019-02-20T16:27:29.856Z,10.62
2019-02-20T16:30:09.545Z,10.62
2019-02-20T16:32:45.160Z,10.59
2019-02-20T16:35:24.718Z,10.44
2019-02-20T16:37:59.844Z,10.44
2019-02-20T16:40:34.169Z,10.36
2019-02-20T16:43:10.924Z,10.35
2019-02-20T16:45:50.145Z,10.31
2019-02-20T16:48:28.152Z,10.23
2019-02-20T16:51:02.257Z,10.23
2019-02-20T16:53:39.322Z,10.19
2019-02-20T16:56:13.142Z,10.10
2019-02-20T16:58:46.745Z,10.10
2019-02-20T17:01:19.927Z,10.07
2019-02-20T17:03:54.801Z,10.02
2019-02-20T17:06:31.821Z,9.86
2019-02-20T17:09:08.894Z,9.88
2019-02-20T17:11:41.359Z,9.76
2019-02-20T17:14:23.100Z,9.67
2019-02-20T17:16:59.751Z,9.55
2019-02-20T17:19:55.298Z,9.51
2019-02-20T17:22:32.886Z,9.45
2019-02-20T17:25:04.370Z,9.34
2019-02-20T17:27:35.819Z,9.23
2019-02-20T17:30:09.274Z,9.07
2019-02-20T17:32:40.926Z,8.79
2019-02-20T17:35:17.056Z,8.93
2019-02-20T17:37:48.861Z,8.86
2019-02-20T17:40:20.378Z,8.90
2019-02-20T17:42:51.942Z,8.86
2019-02-20T17:45:23.395Z,8.78
2019-02-20T17:47:54.826Z,8.73
2019-02-20T17:50:26.303Z,8.69
2019-02-20T17:52:57.730Z,8.66
2019-02-20T17:55:34.026Z,8.63
2019-02-20T17:58:17.597Z,8.53
2019-02-20T18:01:02.771Z,8.60
2019-02-20T18:03:41.021Z,8.54
2019-02-20T18:06:12.470Z,8.48
2019-02-20T18:08:43.917Z,8.36
2019-02-20T18:11:23.409Z,8.34
2019-02-20T18:14:01.745Z,8.32
2019-02-20T18:16:33.221Z,8.28
2019-02-20T18:19:04.687Z,8.22
2019-02-20T18:21:36.169Z,8.16
2019-02-20T18:24:08.661Z,8.10
2019-02-20T18:26:40.143Z,8.11
2019-02-20T18:29:11.572Z,7.93
2019-02-20T18:31:43.005Z,7.97
2019-02-20T18:34:14.413Z,7.83
2019-02-20T18:36:45.969Z,7.90
2019-02-20T18:39:18.454Z,7.85
2019-02-20T18:41:49.901Z,7.73
2019-02-20T18:44:21.604Z,7.77
2019-02-20T18:46:53.084Z,7.75
2019-02-20T18:49:24.623Z,7.82
2019-02-20T18:51:56.140Z,7.74
2019-02-20T18:54:27.571Z,7.70
2019-02-20T18:56:58.941Z,7.69
2019-02-20T18:59:30.380Z,7.70
2019-02-20T19:02:01.823Z,7.68
2019-02-20T19:04:33.324Z,7.57
2019-02-20T19:07:15.984Z,7.54
2019-02-20T19:09:50.655Z,7.44
2019-02-20T19:13:16.726Z,7.45
2019-02-20T19:16:38.109Z,7.41
2019-02-20T19:19:50.013Z,7.13
2019-02-20T19:23:30.905Z,7.25
2019-02-20T19:26:50.435Z,7.37
2019-02-20T19:30:33.629Z,7.39
2019-02-20T19:33:48.860Z,7.37
2019-02-20T19:37:26.785Z,7.31
2019-02-20T19:40:56.219Z,7.13
2019-02-20T19:44:04.030Z,7.01
2019-02-20T19:47:22.856Z,6.97
2019-02-20T19:50:46.660Z,6.80
2019-02-20T19:54:12.458Z,6.68
2019-02-20T19:57:56.042Z,6.73
2019-02-20T20:01:44.739Z,6.70
2019-02-20T20:04:35.619Z,6.60
2019-02-20T20:07:50.518Z,6.59
2019-02-20T20:10:48.434Z,6.63
2019-02-20T20:13:59.664Z,6.42
2019-02-20T20:17:16.533Z,6.39
2019-02-20T20:20:09.406Z,6.34
2019-02-20T20:23:16.469Z,6.41
2019-02-20T20:26:03.222Z,6.47
2019-02-20T20:29:16.008Z,6.30
2019-02-20T20:32:16.515Z,6.30
2019-02-20T20:35:59.432Z,6.21
2019-02-20T20:39:23.273Z,6.10
2019-02-20T20:42:56.924Z,6.08
2019-02-20T20:46:16.307Z,6.11
2019-02-20T20:49:57.871Z,5.98
2019-02-20T20:53:40.987Z,5.96
2019-02-20T20:56:45.640Z,5.84
2019-02-20T20:59:56.878Z,5.88
2019-02-20T21:02:41.175Z,5.84
2019-02-20T21:06:28.679Z,5.73
2019-02-20T21:09:38.043Z,5.57
2019-02-20T21:12:44.199Z,5.67
2019-02-20T21:16:06.110Z,5.82
2019-02-20T21:19:27.858Z,5.78
2019-02-20T21:22:39.839Z,5.62
2019-02-20T21:26:25.526Z,5.72
2019-02-20T21:29:28.769Z,5.68
2019-02-20T21:33:15.309Z,5.49
2019-02-20T21:36:30.458Z,5.40
2019-02-20T21:39:55.636Z,5.26
2019-02-20T21:43:31.432Z,5.29
2019-02-20T21:46:59.162Z,5.18
2019-02-20T21:50:24.660Z,5.21
2019-02-20T21:53:41.598Z,5.12
2019-02-20T21:57:06.087Z,5.35
2019-02-20T22:00:27.751Z,5.26
2019-02-20T22:03:48.109Z,5.32
2019-02-20T22:06:31.515Z,5.21
2019-02-20T22:09:43.776Z,5.23
2019-02-20T22:13:15.696Z,5.31
2019-02-20T22:16:37.099Z,5.16
2019-02-20T22:19:53.734Z,5.34
2019-02-20T22:23:26.358Z,5.09
2019-02-20T22:26:47.190Z,5.04
2019-02-20T22:30:07.343Z,4.99
2019-02-20T22:33:50.329Z,4.96
2019-02-20T22:36:59.126Z,5.08
2019-02-20T22:39:55.001Z,4.94
2019-02-20T22:43:40.384Z,5.00
2019-02-20T22:46:36.609Z,5.05
2019-02-20T22:49:52.032Z,5.03
2019-02-20T22:52:59.777Z,5.02
2019-02-20T22:56:21.517Z,5.01
2019-02-20T23:00:01.223Z,4.82
2019-02-20T23:03:19.409Z,4.83
2019-02-20T23:07:06.519Z,4.75
2019-02-20T23:10:45.881Z,4.99
2019-02-20T23:14:02.643Z,5.01
2019-02-20T23:16:34.363Z,4.95
2019-02-20T23:19:05.847Z,4.90
2019-02-20T23:21:37.281Z,4.99
2019-02-20T23:24:08.700Z,4.86
2019-02-20T23:26:40.153Z,4.94
2019-02-20T23:29:11.651Z,4.88
2019-02-20T23:31:43.095Z,4.79
2019-02-20T23:34:15.618Z,4.67
2019-02-20T23:36:48.179Z,4.69
2019-02-20T23:39:19.630Z,4.58
2019-02-20T23:41:51.085Z,4.62
2019-02-20T23:44:23.679Z,4.62
2019-02-20T23:46:55.233Z,4.51
2019-02-20T23:49:26.693Z,4.60
2019-02-20T23:51:58.136Z,4.74
2019-02-20T23:54:29.565Z,4.65
2019-02-20T23:57:00.926Z,4.67
2019-02-20T23:59:32.553Z,4.67
